createdAt,value
2023-07-29T00:01:46.258Z,0.95
2023-07-29T00:04:13.525Z,0.98
2023-07-29T00:06:40.633Z,1.05
2023-07-29T00:09:07.847Z,0.87
2023-07-29T00:11:35.270Z,0.88
2023-07-29T00:14:03.389Z,0.80
2023-07-29T00:16:30.640Z,1.02
2023-07-29T00:18:57.856Z,0.80
2023-07-29T00:21:25.054Z,1.10
2023-07-29T00:23:52.219Z,0.80
2023-07-29T00:26:19.365Z,0.80
2023-07-29T00:28:46.568Z,1.08
2023-07-29T00:31:13.815Z,0.90
2023-07-29T00:33:40.989Z,1.10
2023-07-29T00:36:08.157Z,1.02
2023-07-29T00:38:35.376Z,0.85
2023-07-29T00:41:04.581Z,1.20
2023-07-29T00:43:31.797Z,0.75
2023-07-29T00:45:59.245Z,1.17
2023-07-29T00:48:27.585Z,1.20
2023-07-29T00:50:55.934Z,1.17
2023-07-29T00:53:28.167Z,1.08
2023-07-29T00:55:55.541Z,0.95
2023-07-29T00:58:23.231Z,0.67
2023-07-29T01:00:51.593Z,1.10
2023-07-29T01:03:18.898Z,0.98
2023-07-29T01:05:58.395Z,0.85
2023-07-29T01:08:57.809Z,1.02
2023-07-29T01:11:24.879Z,1.00
2023-07-29T01:13:57.066Z,1.15
2023-07-29T01:16:32.807Z,0.90
2023-07-29T01:19:10.465Z,1.00
2023-07-29T01:21:39.528Z,1.02
2023-07-29T01:24:06.770Z,1.03
2023-07-29T01:26:34.123Z,1.48
2023-07-29T01:29:01.809Z,0.80
2023-07-29T01:31:45.169Z,0.80
2023-07-29T01:34:35.808Z,1.20
2023-07-29T01:37:07.745Z,1.37
2023-07-29T01:39:38.279Z,1.02
2023-07-29T01:42:05.861Z,1.15
2023-07-29T01:44:33.515Z,1.33
2023-07-29T01:47:01.272Z,1.02
2023-07-29T01:49:28.471Z,1.20
2023-07-29T01:51:55.649Z,1.20
2023-07-29T01:54:22.913Z,0.95
2023-07-29T01:56:52.259Z,0.93
2023-07-29T01:59:19.473Z,0.75
2023-07-29T02:01:47.692Z,0.93
2023-07-29T02:04:14.963Z,1.20
2023-07-29T02:06:42.183Z,1.20
2023-07-29T02:09:09.448Z,0.88
2023-07-29T02:11:36.702Z,0.80
2023-07-29T02:14:04.320Z,1.10
2023-07-29T02:16:31.705Z,0.90
2023-07-29T02:18:58.759Z,1.00
2023-07-29T02:21:25.999Z,1.20
2023-07-29T02:23:53.317Z,0.90
2023-07-29T02:26:20.516Z,1.07
2023-07-29T02:28:47.849Z,1.20
2023-07-29T02:31:24.832Z,1.05
2023-07-29T02:33:52.869Z,1.02
2023-07-29T02:36:20.783Z,0.82
2023-07-29T02:38:48.209Z,1.10
2023-07-29T02:41:17.167Z,1.30
2023-07-29T02:43:51.809Z,1.08
2023-07-29T02:46:19.710Z,1.10
2023-07-29T02:48:47.046Z,1.00
2023-07-29T02:51:14.272Z,1.30
2023-07-29T02:53:41.433Z,0.95
2023-07-29T02:56:10.326Z,0.70
2023-07-29T02:58:38.678Z,1.30
2023-07-29T03:01:07.672Z,1.00
2023-07-29T03:03:35.527Z,1.37
2023-07-29T03:06:06.593Z,0.95
2023-07-29T03:08:34.610Z,0.80
2023-07-29T03:11:14.879Z,1.20
2023-07-29T03:13:42.384Z,1.15
2023-07-29T03:16:11.495Z,1.00
2023-07-29T03:18:41.195Z,0.98
2023-07-29T03:21:09.245Z,1.33
2023-07-29T03:23:37.241Z,1.42
2023-07-29T03:26:11.033Z,0.88
2023-07-29T03:28:43.788Z,1.37
2023-07-29T03:31:11.905Z,1.13
2023-07-29T03:33:39.291Z,0.70
2023-07-29T03:36:06.927Z,1.25
2023-07-29T03:38:36.481Z,1.00
2023-07-29T03:41:04.260Z,1.10
2023-07-29T03:43:31.797Z,1.05
2023-07-29T03:46:02.205Z,1.63
2023-07-29T03:48:29.429Z,1.00
2023-07-29T03:50:56.588Z,1.08
2023-07-29T03:53:23.783Z,1.00
2023-07-29T03:55:51.395Z,1.40
2023-07-29T03:58:19.309Z,0.82
2023-07-29T04:00:46.510Z,1.00
2023-07-29T04:03:13.981Z,1.25
2023-07-29T04:05:44.053Z,1.20
2023-07-29T04:08:11.366Z,1.05
2023-07-29T04:10:39.093Z,1.17
2023-07-29T04:13:06.375Z,1.05
2023-07-29T04:15:33.634Z,1.08
2023-07-29T04:18:00.900Z,1.37
2023-07-29T04:20:28.257Z,1.42
2023-07-29T04:22:55.362Z,0.93
2023-07-29T04:25:22.463Z,1.33
2023-07-29T04:27:49.751Z,1.10
2023-07-29T04:30:17.070Z,1.00
2023-07-29T04:32:46.063Z,0.88
2023-07-29T04:35:13.276Z,1.00
2023-07-29T04:37:40.455Z,0.77
2023-07-29T04:40:08.623Z,1.05
2023-07-29T04:42:35.833Z,1.37
2023-07-29T04:45:03.243Z,1.10
2023-07-29T04:47:33.113Z,1.10
2023-07-29T04:50:00.386Z,0.93
2023-07-29T04:52:27.515Z,1.10
2023-07-29T04:54:54.648Z,1.00
2023-07-29T04:57:21.791Z,1.10
2023-07-29T04:59:48.960Z,0.98
2023-07-29T05:02:16.597Z,0.70
2023-07-29T05:04:43.803Z,0.80
2023-07-29T05:07:11.034Z,0.87
2023-07-29T05:09:38.337Z,0.98
2023-07-29T05:12:06.506Z,0.73
2023-07-29T05:14:33.587Z,1.08
2023-07-29T05:17:01.977Z,1.00
2023-07-29T05:19:29.151Z,0.97
2023-07-29T05:21:58.062Z,1.05
2023-07-29T05:24:25.396Z,0.70
2023-07-29T05:26:52.584Z,1.02
2023-07-29T05:29:19.947Z,0.75
2023-07-29T05:31:47.295Z,1.73
2023-07-29T05:34:14.613Z,0.93
2023-07-29T05:36:42.404Z,0.77
2023-07-29T05:39:09.524Z,0.82
2023-07-29T05:41:36.707Z,0.90
2023-07-29T05:44:04.042Z,0.97
2023-07-29T05:46:31.304Z,0.80
2023-07-29T05:48:58.562Z,0.95
2023-07-29T05:51:25.734Z,1.33
2023-07-29T05:53:53.186Z,0.70
2023-07-29T05:56:21.004Z,0.83
2023-07-29T05:58:48.734Z,0.90
2023-07-29T06:01:23.634Z,0.80
2023-07-29T06:03:51.168Z,1.20
2023-07-29T06:06:18.745Z,0.85
2023-07-29T06:08:51.352Z,0.90
2023-07-29T06:11:28.677Z,0.90
2023-07-29T06:14:27.630Z,0.63
2023-07-29T06:17:10.209Z,0.70
2023-07-29T06:19:37.984Z,0.90
2023-07-29T06:22:06.819Z,0.97
2023-07-29T06:24:34.172Z,1.00
2023-07-29T06:27:01.379Z,0.90
2023-07-29T06:29:28.618Z,1.05
2023-07-29T06:31:55.961Z,0.90
2023-07-29T06:34:25.857Z,1.33
2023-07-29T06:37:00.055Z,0.95
2023-07-29T06:39:35.202Z,1.10
2023-07-29T06:42:04.903Z,0.90
2023-07-29T06:44:34.736Z,0.85
2023-07-29T06:47:16.347Z,1.10
2023-07-29T06:49:47.325Z,1.10
2023-07-29T06:52:14.668Z,0.77
2023-07-29T06:55:48.889Z,0.90
2023-07-29T06:58:19.469Z,0.80
2023-07-29T07:01:03.617Z,0.90
2023-07-29T07:06:53.843Z,1.08
2023-07-29T07:09:32.528Z,0.95
2023-07-29T07:09:43.172Z,0.75
2023-07-29T07:12:04.957Z,0.80
2023-07-29T07:14:56.850Z,0.70
2023-07-29T07:17:47.020Z,0.70
2023-07-29T07:21:01.692Z,0.80
2023-07-29T07:24:02.593Z,1.10
2023-07-29T07:26:46.567Z,1.00
2023-07-29T07:29:56.581Z,0.90
2023-07-29T07:33:05.097Z,0.77
2023-07-29T07:35:55.068Z,0.80
2023-07-29T07:38:32.479Z,1.02
2023-07-29T07:41:27.663Z,1.08
2023-07-29T07:44:30.708Z,0.80
2023-07-29T07:50:23.820Z,0.88
2023-07-29T07:53:01.924Z,0.75
2023-07-29T07:55:48.437Z,1.17
2023-07-29T08:00:51.620Z,1.00
2023-07-29T08:01:31.142Z,0.95
2023-07-29T08:04:33.585Z,0.75
2023-07-29T08:07:09.594Z,0.82
2023-07-29T08:10:07.100Z,0.88
2023-07-29T08:16:10.810Z,0.70
2023-07-29T08:18:35.373Z,1.10
2023-07-29T08:18:51.816Z,0.80
2023-07-29T08:21:30.857Z,0.88
2023-07-29T08:24:13.917Z,0.85
2023-07-29T08:27:11.091Z,0.90
2023-07-29T08:29:49.502Z,0.77
2023-07-29T08:32:25.350Z,1.05
2023-07-29T08:34:54.219Z,0.80
2023-07-29T08:37:43.574Z,0.93
2023-07-29T08:40:41.119Z,0.97
2023-07-29T08:43:25.455Z,1.02
2023-07-29T08:45:55.760Z,0.70
2023-07-29T08:48:34.613Z,1.10
2023-07-29T08:51:06.066Z,0.95
2023-07-29T08:53:56.432Z,1.00
2023-07-29T08:56:30.251Z,1.08
2023-07-29T08:59:00.825Z,0.63
2023-07-29T09:01:32.073Z,1.08
2023-07-29T09:03:59.636Z,1.02
2023-07-29T09:06:28.669Z,0.80
2023-07-29T09:08:59.308Z,1.00
2023-07-29T09:11:26.603Z,1.10
2023-07-29T09:13:54.128Z,1.17
2023-07-29T09:16:22.720Z,0.90
2023-07-29T09:18:53.681Z,0.93
2023-07-29T09:21:38.610Z,0.70
2023-07-29T09:24:19.614Z,0.90
2023-07-29T09:27:06.643Z,0.82
2023-07-29T09:29:40.900Z,1.10
2023-07-29T09:32:22.108Z,1.00
2023-07-29T09:35:01.560Z,1.15
2023-07-29T09:37:32.392Z,1.10
2023-07-29T09:40:17.290Z,0.80
2023-07-29T09:42:56.239Z,1.38
2023-07-29T09:45:28.524Z,1.03
2023-07-29T09:47:58.447Z,1.10
2023-07-29T09:50:27.181Z,1.02
2023-07-29T09:52:56.658Z,1.20
2023-07-29T09:55:36.277Z,1.20
2023-07-29T09:58:09.461Z,0.90
2023-07-29T10:00:39.384Z,1.00
2023-07-29T10:05:36.742Z,1.20
2023-07-29T10:08:05.549Z,1.15
2023-07-29T10:10:32.811Z,1.40
2023-07-29T10:13:00.371Z,1.10
2023-07-29T10:15:27.990Z,0.95
2023-07-29T10:17:55.473Z,1.58
2023-07-29T10:20:23.013Z,1.45
2023-07-29T10:22:52.592Z,1.87
2023-07-29T10:25:23.695Z,1.25
2023-07-29T10:28:06.252Z,1.27
2023-07-29T10:30:34.595Z,1.50
2023-07-29T10:33:07.207Z,1.20
2023-07-29T10:35:35.395Z,1.60
2023-07-29T10:38:04.392Z,1.27
2023-07-29T10:40:57.031Z,1.42
2023-07-29T10:43:37.154Z,1.42
2023-07-29T10:46:24.419Z,1.40
2023-07-29T10:48:51.728Z,1.93
2023-07-29T10:51:38.729Z,1.65
2023-07-29T10:54:17.124Z,1.38
2023-07-29T10:56:51.199Z,2.03
2023-07-29T10:59:18.740Z,1.70
2023-07-29T11:02:19.905Z,1.87
2023-07-29T11:04:52.348Z,1.85
2023-07-29T11:07:24.629Z,2.03
2023-07-29T11:09:59.969Z,2.17
2023-07-29T11:12:55.278Z,2.53
2023-07-29T11:15:26.125Z,2.37
2023-07-29T11:17:58.376Z,2.40
2023-07-29T11:20:34.583Z,2.30
2023-07-29T11:23:05.083Z,2.50
2023-07-29T11:25:38.965Z,2.35
2023-07-29T11:28:18.291Z,2.40
2023-07-29T11:30:52.231Z,2.20
2023-07-29T11:33:23.500Z,1.90
2023-07-29T11:35:58.377Z,2.20
2023-07-29T11:38:38.214Z,2.20
2023-07-29T11:41:16.112Z,1.73
2023-07-29T11:43:50.088Z,2.28
2023-07-29T11:46:27.127Z,1.83
2023-07-29T11:48:59.595Z,1.90
2023-07-29T11:51:32.437Z,1.95
2023-07-29T11:54:02.321Z,1.97
2023-07-29T11:56:50.036Z,1.92
2023-07-29T11:59:23.596Z,1.85
2023-07-29T12:01:52.179Z,2.10
2023-07-29T12:04:23.087Z,1.90
2023-07-29T12:06:58.216Z,2.20
2023-07-29T12:09:33.162Z,1.60
2023-07-29T12:12:09.205Z,1.70
2023-07-29T12:14:56.284Z,1.85
2023-07-29T12:17:24.755Z,2.05
2023-07-29T12:19:58.359Z,2.07
2023-07-29T12:22:38.821Z,2.28
2023-07-29T12:25:27.183Z,1.70
2023-07-29T12:27:59.631Z,1.85
2023-07-29T12:30:29.384Z,2.10
2023-07-29T12:33:06.260Z,2.00
2023-07-29T12:35:43.797Z,2.13
2023-07-29T12:38:12.407Z,1.80
2023-07-29T12:40:43.383Z,1.92
2023-07-29T12:43:18.458Z,1.75
2023-07-29T12:45:45.981Z,1.80
2023-07-29T12:48:22.516Z,1.60
2023-07-29T12:50:52.950Z,1.63
2023-07-29T12:53:22.862Z,2.00
2023-07-29T12:55:52.645Z,1.77
2023-07-29T12:58:19.918Z,1.90
2023-07-29T13:00:55.631Z,2.17
2023-07-29T13:03:26.460Z,1.58
2023-07-29T13:06:01.320Z,1.98
2023-07-29T13:08:37.245Z,2.15
2023-07-29T13:11:05.417Z,1.67
2023-07-29T13:13:37.855Z,1.63
2023-07-29T13:16:07.858Z,1.75
2023-07-29T13:18:39.389Z,1.70
2023-07-29T13:21:11.764Z,1.90
2023-07-29T13:23:52.976Z,1.77
2023-07-29T13:26:27.138Z,1.60
2023-07-29T13:29:08.899Z,1.50
2023-07-29T13:31:41.265Z,1.40
2023-07-29T13:34:08.806Z,1.50
2023-07-29T13:36:39.257Z,1.30
2023-07-29T13:39:08.006Z,1.23
2023-07-29T13:41:35.315Z,1.50
2023-07-29T13:44:02.776Z,1.60
2023-07-29T13:46:32.981Z,1.33
2023-07-29T13:49:03.261Z,1.30
2023-07-29T13:51:30.719Z,1.40
2023-07-29T13:54:00.894Z,1.35
2023-07-29T13:56:36.057Z,1.38
2023-07-29T13:59:14.016Z,1.58
2023-07-29T14:01:53.060Z,1.37
2023-07-29T14:04:31.532Z,1.50
2023-07-29T14:07:02.075Z,1.10
2023-07-29T14:09:32.575Z,1.20
2023-07-29T14:11:59.938Z,1.42
2023-07-29T14:14:37.921Z,1.10
2023-07-29T14:17:13.357Z,1.30
2023-07-29T14:19:40.901Z,1.35
2023-07-29T14:22:13.232Z,1.25
2023-07-29T14:24:43.047Z,1.40
2023-07-29T14:27:16.458Z,1.40
2023-07-29T14:29:51.249Z,1.23
2023-07-29T14:32:23.901Z,1.10
2023-07-29T14:34:54.137Z,1.17
2023-07-29T14:37:21.735Z,1.13
2023-07-29T14:39:48.945Z,1.07
2023-07-29T14:42:21.164Z,1.02
2023-07-29T14:44:56.409Z,1.10
2023-07-29T14:47:36.498Z,1.40
2023-07-29T14:50:13.200Z,1.08
2023-07-29T14:52:40.831Z,1.20
2023-07-29T14:55:15.509Z,1.63
2023-07-29T14:57:55.306Z,1.23
2023-07-29T15:00:23.076Z,1.27
2023-07-29T15:02:53.467Z,1.48
2023-07-29T15:06:02.231Z,1.27
2023-07-29T15:08:47.317Z,0.93
2023-07-29T15:11:14.748Z,1.33
2023-07-29T15:13:42.035Z,1.20
2023-07-29T15:16:09.483Z,1.17
2023-07-29T15:18:38.089Z,1.17
2023-07-29T15:21:08.083Z,0.93
2023-07-29T15:23:44.729Z,0.95
2023-07-29T15:26:16.502Z,0.90
2023-07-29T15:28:46.787Z,1.17
2023-07-29T15:31:24.319Z,0.90
2023-07-29T15:33:51.707Z,1.30
2023-07-29T15:36:25.710Z,1.10
2023-07-29T15:38:53.057Z,1.05
2023-07-29T15:41:24.817Z,1.00
2023-07-29T15:43:52.281Z,0.73
2023-07-29T15:46:19.544Z,1.25
2023-07-29T15:48:46.822Z,1.10
2023-07-29T15:51:13.996Z,1.10
2023-07-29T15:53:41.317Z,0.93
2023-07-29T15:56:08.421Z,1.10
2023-07-29T15:58:36.379Z,1.00
2023-07-29T16:01:04.681Z,1.13
2023-07-29T16:03:31.917Z,1.13
2023-07-29T16:05:59.157Z,1.00
2023-07-29T16:08:26.375Z,1.30
2023-07-29T16:10:53.526Z,1.20
2023-07-29T16:13:20.721Z,1.20
2023-07-29T16:15:47.923Z,0.93
2023-07-29T16:18:15.079Z,1.08
2023-07-29T16:20:42.251Z,1.20
2023-07-29T16:23:10.215Z,1.10
2023-07-29T16:25:37.581Z,0.90
2023-07-29T16:28:05.025Z,1.27
2023-07-29T16:30:32.189Z,1.30
2023-07-29T16:32:59.746Z,0.97
2023-07-29T16:35:26.862Z,1.20
2023-07-29T16:37:54.065Z,1.30
2023-07-29T16:40:21.229Z,1.10
2023-07-29T16:42:48.410Z,1.35
2023-07-29T16:45:16.746Z,1.03
2023-07-29T16:47:44.038Z,0.75
2023-07-29T16:50:11.388Z,1.00
2023-07-29T16:52:38.652Z,1.00
2023-07-29T16:55:07.848Z,1.10
2023-07-29T16:57:36.294Z,1.03
2023-07-29T17:00:04.565Z,1.20
2023-07-29T17:02:34.477Z,1.27
2023-07-29T17:05:07.113Z,1.23
2023-07-29T17:07:34.862Z,1.23
2023-07-29T17:10:02.455Z,1.33
2023-07-29T17:12:29.797Z,1.30
2023-07-29T17:14:57.017Z,1.35
2023-07-29T17:17:24.238Z,1.20
2023-07-29T17:19:51.385Z,1.45
2023-07-29T17:22:18.592Z,1.50
2023-07-29T17:24:45.707Z,1.23
2023-07-29T17:27:12.856Z,1.33
2023-07-29T17:29:41.524Z,1.30
2023-07-29T17:32:10.036Z,1.38
2023-07-29T17:34:37.429Z,1.30
2023-07-29T17:37:05.291Z,1.20
2023-07-29T17:39:32.795Z,1.20
2023-07-29T17:41:59.988Z,1.27
2023-07-29T17:44:27.765Z,1.38
2023-07-29T17:46:57.493Z,1.30
2023-07-29T17:49:24.915Z,1.30
2023-07-29T17:52:00.913Z,1.30
2023-07-29T17:54:28.326Z,1.02
2023-07-29T17:57:06.787Z,1.15
2023-07-29T17:59:36.274Z,1.30
2023-07-29T18:02:06.129Z,1.40
2023-07-29T18:04:33.869Z,1.23
2023-07-29T18:07:02.346Z,1.20
2023-07-29T18:09:29.751Z,1.25
2023-07-29T18:12:00.168Z,1.10
2023-07-29T18:14:27.368Z,1.10
2023-07-29T18:16:54.728Z,1.08
2023-07-29T18:19:22.612Z,1.70
2023-07-29T18:21:49.757Z,1.50
2023-07-29T18:24:17.029Z,1.40
2023-07-29T18:26:44.150Z,1.33
2023-07-29T18:29:11.308Z,1.15
2023-07-29T18:31:38.480Z,1.40
2023-07-29T18:34:06.035Z,1.30
2023-07-29T18:36:33.294Z,1.20
2023-07-29T18:39:00.996Z,1.15
2023-07-29T18:41:28.214Z,1.40
2023-07-29T18:43:58.898Z,1.00
2023-07-29T18:46:28.968Z,1.55
2023-07-29T18:48:56.710Z,1.57
2023-07-29T18:51:23.911Z,1.30
2023-07-29T18:53:51.095Z,1.13
2023-07-29T18:56:18.206Z,1.23
2023-07-29T18:58:45.425Z,1.13
2023-07-29T19:01:12.640Z,1.03
2023-07-29T19:03:41.892Z,1.00
2023-07-29T19:06:09.076Z,1.05
2023-07-29T19:08:36.201Z,1.00
2023-07-29T19:11:03.388Z,0.90
2023-07-29T19:13:30.573Z,1.00
2023-07-29T19:15:58.311Z,1.80
2023-07-29T19:18:26.154Z,0.88
2023-07-29T19:20:54.762Z,0.85
2023-07-29T19:23:23.009Z,1.20
2023-07-29T19:25:51.949Z,1.40
2023-07-29T19:28:20.005Z,1.23
2023-07-29T19:30:47.250Z,1.45
2023-07-29T19:33:14.493Z,1.23
2023-07-29T19:35:41.699Z,1.10
2023-07-29T19:38:08.907Z,1.30
2023-07-29T19:40:36.270Z,1.45
2023-07-29T19:43:07.417Z,0.90
2023-07-29T19:45:36.994Z,0.82
2023-07-29T19:48:07.741Z,1.30
2023-07-29T19:50:35.097Z,1.10
2023-07-29T19:53:02.394Z,1.00
2023-07-29T19:55:55.467Z,1.00
2023-07-29T19:58:22.836Z,1.00
2023-07-29T20:00:51.594Z,0.73
2023-07-29T20:03:19.691Z,0.90
2023-07-29T20:05:47.520Z,1.10
2023-07-29T20:08:17.504Z,1.27
2023-07-29T20:10:47.129Z,1.00
2023-07-29T20:13:15.232Z,0.95
2023-07-29T20:15:43.128Z,0.80
2023-07-29T20:18:10.726Z,1.13
2023-07-29T20:20:37.888Z,1.42
2023-07-29T20:23:05.068Z,1.05
2023-07-29T20:25:32.326Z,1.10
2023-07-29T20:28:01.934Z,1.30
2023-07-29T20:30:31.635Z,0.98
2023-07-29T20:32:59.021Z,0.80
2023-07-29T20:35:26.899Z,1.27
2023-07-29T20:37:57.258Z,1.35
2023-07-29T20:40:26.908Z,1.10
2023-07-29T20:42:54.483Z,0.93
2023-07-29T20:45:21.736Z,1.13
2023-07-29T20:47:49.247Z,0.90
2023-07-29T20:50:19.097Z,1.02
2023-07-29T20:52:46.521Z,1.00
2023-07-29T20:55:13.772Z,1.02
2023-07-29T20:57:41.148Z,1.25
2023-07-29T21:00:11.724Z,1.00
2023-07-29T21:02:39.046Z,1.10
2023-07-29T21:05:07.717Z,1.10
2023-07-29T21:07:35.091Z,1.40
2023-07-29T21:10:03.573Z,1.10
2023-07-29T21:12:30.882Z,1.25
2023-07-29T21:14:58.231Z,1.27
2023-07-29T21:17:33.648Z,1.50
2023-07-29T21:20:02.741Z,2.00
2023-07-29T21:22:30.131Z,1.50
2023-07-29T21:24:57.522Z,1.50
2023-07-29T21:27:25.404Z,1.60
2023-07-29T21:29:52.697Z,1.20
2023-07-29T21:32:20.219Z,1.25
2023-07-29T21:34:47.350Z,1.73
2023-07-29T21:37:21.870Z,1.20
2023-07-29T21:39:57.020Z,1.30
2023-07-29T21:42:24.180Z,1.20
2023-07-29T21:44:53.447Z,1.45
2023-07-29T21:47:20.786Z,1.38
2023-07-29T21:49:47.990Z,1.98
2023-07-29T21:52:15.189Z,1.45
2023-07-29T21:54:42.826Z,1.53
2023-07-29T21:57:12.321Z,1.45
2023-07-29T21:59:42.391Z,1.75
2023-07-29T22:02:11.101Z,1.27
2023-07-29T22:04:38.924Z,1.73
2023-07-29T22:07:07.210Z,1.40
2023-07-29T22:09:34.614Z,1.48
2023-07-29T22:12:02.144Z,1.60
2023-07-29T22:14:33.432Z,1.70
2023-07-29T22:17:04.104Z,1.45
2023-07-29T22:19:31.484Z,1.17
2023-07-29T22:21:58.866Z,1.58
2023-07-29T22:24:26.211Z,1.60
2023-07-29T22:26:53.538Z,1.33
2023-07-29T22:29:20.937Z,1.40
2023-07-29T22:31:48.531Z,1.37
2023-07-29T22:34:16.469Z,1.58
2023-07-29T22:36:43.856Z,1.23
2023-07-29T22:39:11.118Z,1.38
2023-07-29T22:41:38.644Z,1.48
2023-07-29T22:44:06.174Z,1.47
2023-07-29T22:46:33.620Z,1.25
2023-07-29T22:49:01.002Z,1.52
2023-07-29T22:51:28.441Z,1.48
2023-07-29T22:53:55.704Z,1.45
2023-07-29T22:56:23.031Z,1.83
2023-07-29T22:58:50.294Z,1.27
2023-07-29T23:01:17.775Z,1.20
2023-07-29T23:03:45.337Z,1.05
2023-07-29T23:06:12.852Z,1.10
2023-07-29T23:08:40.129Z,1.80
2023-07-29T23:11:07.282Z,1.40
2023-07-29T23:13:34.533Z,1.70
2023-07-29T23:16:05.213Z,2.03
2023-07-29T23:18:32.579Z,1.60
2023-07-29T23:21:00.023Z,1.60
2023-07-29T23:23:27.274Z,1.45
2023-07-29T23:25:54.584Z,1.58
2023-07-29T23:28:21.750Z,1.25
2023-07-29T23:30:49.422Z,1.58
2023-07-29T23:33:17.536Z,1.57
2023-07-29T23:35:45.803Z,1.60
2023-07-29T23:38:13.041Z,1.23
2023-07-29T23:40:40.269Z,2.17
2023-07-29T23:43:07.484Z,1.95
2023-07-29T23:45:34.900Z,1.30
2023-07-29T23:48:02.326Z,2.03
2023-07-29T23:50:30.585Z,1.58
2023-07-29T23:52:59.781Z,1.98
2023-07-29T23:55:27.922Z,1.73
2023-07-29T23:57:56.585Z,1.73
